Time;durP1;ratioP1;P1;durP2;ratioP2;P2;SDS_P1;SDS_P2;PMS_P1;PMS_P2;Temp;Humidity;BMP_temperature;BMP_pressure;BME280_temperature;BME280_humidity;BME280_pressure;Samples;Min_cycle;Max_cycle;Signal;HPM_P1;HPM_P2
2021/06/25 00:01:25;;;;;;;27.25;20.85;;;16.50;99.90;;;;;;5094958;28;20208;-61
2021/06/25 00:03:54;;;;;;;26.77;19.83;;;16.50;99.90;;;;;;5094218;28;20710;-61
2021/06/25 00:06:22;;;;;;;24.95;19.70;;;16.40;99.90;;;;;;5094771;28;20306;-62
2021/06/25 00:08:50;;;;;;;21.88;19.58;;;16.40;99.90;;;;;;5094768;28;20218;-61
2021/06/25 00:11:18;;;;;;;22.42;19.17;;;16.30;99.90;;;;;;5094735;28;20217;-61
2021/06/25 00:13:46;;;;;;;25.63;20.02;;;16.30;99.90;;;;;;5094691;28;20303;-61
2021/06/25 00:16:14;;;;;;;21.77;19.17;;;16.30;99.90;;;;;;5094480;28;20610;-61
2021/06/25 00:18:42;;;;;;;23.55;19.45;;;16.30;99.90;;;;;;5094416;28;20267;-61
2021/06/25 00:21:11;;;;;;;24.60;20.65;;;16.30;99.90;;;;;;5094520;28;20221;-62
2021/06/25 00:23:39;;;;;;;25.92;20.42;;;16.30;99.90;;;;;;5094658;28;20322;-61
2021/06/25 00:26:07;;;;;;;26.88;20.52;;;16.30;99.90;;;;;;5094304;28;20211;-62
2021/06/25 00:28:34;;;;;;;22.23;19.88;;;16.30;99.90;;;;;;5093893;28;20215;-60
2021/06/25 00:31:02;;;;;;;25.08;19.85;;;16.30;99.90;;;;;;5094343;28;20218;-61
2021/06/25 00:33:30;;;;;;;24.80;20.50;;;16.30;99.90;;;;;;5093953;28;20212;-61
2021/06/25 00:35:58;;;;;;;27.33;19.52;;;16.20;99.90;;;;;;5093998;28;20645;-60
2021/06/25 00:38:27;;;;;;;25.90;20.30;;;16.20;99.90;;;;;;5094261;28;20265;-61
2021/06/25 00:40:55;;;;;;;25.92;20.27;;;16.20;99.90;;;;;;5094226;28;20304;-61
2021/06/25 00:43:23;;;;;;;25.90;21.33;;;16.20;99.90;;;;;;5093930;28;20321;-61
2021/06/25 00:45:51;;;;;;;24.80;19.95;;;16.20;99.90;;;;;;5093723;28;20655;-62
2021/06/25 00:48:19;;;;;;;24.35;20.88;;;16.20;99.90;;;;;;5093561;28;20798;-60
2021/06/25 00:50:47;;;;;;;24.02;20.65;;;16.20;99.90;;;;;;5093796;28;20645;-61
2021/06/25 00:53:15;;;;;;;25.38;21.90;;;16.10;99.90;;;;;;5093930;28;20214;-61
2021/06/25 00:55:44;;;;;;;27.40;22.77;;;16.00;99.90;;;;;;5093795;28;20306;-62
2021/06/25 00:58:13;;;;;;;25.65;22.27;;;16.00;99.90;;;;;;5093730;28;20211;-61
2021/06/25 01:00:42;;;;;;;26.92;20.67;;;15.90;99.90;;;;;;5093293;28;20211;-61
2021/06/25 01:03:10;;;;;;;23.70;21.02;;;15.90;99.90;;;;;;5093376;28;20213;-61
2021/06/25 01:05:38;;;;;;;23.50;20.73;;;15.90;99.90;;;;;;5093679;28;20301;-61
2021/06/25 01:08:07;;;;;;;24.60;20.77;;;15.90;99.90;;;;;;5093273;28;20211;-61
2021/06/25 01:10:35;;;;;;;28.00;21.65;;;16.00;99.90;;;;;;5093812;28;20218;-60
2021/06/25 01:13:06;;;;;;;26.08;20.10;;;16.00;99.90;;;;;;5093254;28;20560;-61
2021/06/25 01:15:33;;;;;;;26.83;21.20;;;16.00;99.90;;;;;;5092573;28;20184;-60
2021/06/25 01:18:01;;;;;;;25.08;21.33;;;16.00;99.90;;;;;;5093360;28;20211;-61
2021/06/25 01:20:31;;;;;;;26.02;22.13;;;16.10;99.90;;;;;;5093148;28;20674;-61
2021/06/25 01:23:02;;;;;;;27.00;22.67;;;16.10;99.90;;;;;;5093209;28;20190;-61
2021/06/25 01:25:31;;;;;;;26.38;21.77;;;16.10;99.90;;;;;;5093079;28;20265;-61
2021/06/25 01:28:02;;;;;;;30.10;22.67;;;16.20;99.90;;;;;;5093224;28;20299;-62
2021/06/25 01:30:32;;;;;;;25.15;21.23;;;16.20;99.90;;;;;;5092925;28;20198;-61
2021/06/25 01:33:03;;;;;;;24.70;21.08;;;16.10;99.90;;;;;;5093133;28;20187;-62
2021/06/25 01:35:31;;;;;;;24.75;20.50;;;16.00;99.90;;;;;;5092917;28;20681;-62
2021/06/25 01:37:59;;;;;;;26.58;21.23;;;16.00;99.90;;;;;;5092904;28;20218;-61
2021/06/25 01:40:28;;;;;;;26.73;22.95;;;15.90;99.90;;;;;;5093168;28;20223;-62
2021/06/25 01:42:59;;;;;;;26.02;22.45;;;15.90;99.90;;;;;;5093068;28;20220;-61
2021/06/25 01:45:28;;;;;;;26.50;22.13;;;15.90;99.90;;;;;;5092842;28;20242;-61
2021/06/25 01:47:56;;;;;;;25.63;22.08;;;15.90;99.90;;;;;;5092782;28;20211;-62
2021/06/25 01:50:26;;;;;;;28.13;21.98;;;15.80;99.90;;;;;;5092667;28;20262;-62
2021/06/25 01:52:58;;;;;;;26.17;21.85;;;15.90;99.90;;;;;;5092625;28;20198;-61
2021/06/25 01:55:29;;;;;;;25.13;21.20;;;15.90;99.90;;;;;;5093037;28;20280;-61
2021/06/25 01:57:57;;;;;;;24.20;20.88;;;15.80;99.90;;;;;;5092946;28;20192;-61
2021/06/25 02:00:25;;;;;;;26.25;22.15;;;15.90;99.90;;;;;;5092521;28;20218;-62
2021/06/25 02:02:53;;;;;;;28.25;22.42;;;15.90;99.90;;;;;;5092700;28;20294;-61
2021/06/25 02:05:21;;;;;;;23.63;20.92;;;15.90;99.90;;;;;;5092777;28;20235;-61
2021/06/25 02:07:49;;;;;;;24.33;20.42;;;15.80;99.90;;;;;;5092827;28;20289;-61
2021/06/25 02:10:17;;;;;;;28.23;22.23;;;15.80;99.90;;;;;;5092800;28;20211;-62
2021/06/25 02:12:46;;;;;;;31.23;22.73;;;15.80;99.90;;;;;;5092424;28;20852;-61
2021/06/25 02:15:15;;;;;;;32.90;22.50;;;15.80;99.90;;;;;;5092350;28;20624;-61
2021/06/25 02:17:43;;;;;;;27.52;22.52;;;15.80;99.90;;;;;;5092612;28;20303;-62
2021/06/25 02:20:12;;;;;;;27.75;22.40;;;15.80;99.90;;;;;;5092758;28;20544;-61
2021/06/25 02:22:40;;;;;;;29.33;22.83;;;15.80;99.90;;;;;;5092701;28;20207;-61
2021/06/25 02:25:11;;;;;;;27.85;22.77;;;15.80;99.90;;;;;;5092560;28;20327;-62
2021/06/25 02:27:39;;;;;;;32.28;28.15;;;15.80;99.90;;;;;;5093220;28;20456;-61
2021/06/25 02:30:11;;;;;;;27.67;23.85;;;15.80;99.90;;;;;;5096606;28;20226;-61
2021/06/25 02:32:39;;;;;;;26.25;21.45;;;15.80;99.90;;;;;;5096317;28;20282;-61
2021/06/25 02:35:07;;;;;;;31.15;22.65;;;15.70;99.90;;;;;;5096686;28;20218;-62
2021/06/25 02:37:35;;;;;;;37.47;22.98;;;15.70;99.90;;;;;;5096619;28;20291;-61
2021/06/25 02:40:04;;;;;;;27.75;21.63;;;15.80;99.90;;;;;;5096526;28;20217;-61
2021/06/25 02:42:32;;;;;;;25.45;21.27;;;16.10;99.90;;;;;;5096081;28;20705;-61
2021/06/25 02:45:00;;;;;;;29.10;22.17;;;16.10;99.90;;;;;;5096047;28;20340;-61
2021/06/25 02:47:29;;;;;;;27.52;21.55;;;16.20;99.90;;;;;;5096148;28;20309;-61
2021/06/25 02:49:57;;;;;;;29.35;21.85;;;16.20;99.90;;;;;;5095972;28;20329;-61
2021/06/25 02:52:25;;;;;;;24.17;20.42;;;16.20;99.90;;;;;;5096089;28;20211;-61
2021/06/25 02:54:53;;;;;;;24.75;20.58;;;16.10;99.90;;;;;;5096281;28;20290;-60
2021/06/25 02:57:21;;;;;;;29.95;22.00;;;15.90;99.90;;;;;;5096119;28;20773;-61
2021/06/25 02:59:48;;;;;;;26.73;21.80;;;15.80;99.90;;;;;;5095919;28;20234;-60
2021/06/25 03:02:16;;;;;;;29.23;23.05;;;15.80;99.90;;;;;;5096065;28;20216;-62
2021/06/25 03:04:46;;;;;;;25.65;21.38;;;15.90;99.90;;;;;;5095934;28;20266;-61
2021/06/25 03:07:13;;;;;;;25.15;22.17;;;15.90;99.90;;;;;;5096031;28;20582;-60
2021/06/25 03:09:41;;;;;;;25.77;20.90;;;16.00;99.90;;;;;;5095890;28;20319;-61
2021/06/25 03:12:10;;;;;;;23.30;20.58;;;16.00;99.90;;;;;;5095574;28;20223;-62
2021/06/25 03:14:39;;;;;;;27.13;20.70;;;16.00;99.90;;;;;;5095647;28;20212;-61
2021/06/25 03:17:07;;;;;;;26.35;20.98;;;15.90;99.90;;;;;;5095377;28;20213;-61
2021/06/25 03:19:34;;;;;;;26.13;21.17;;;16.00;99.90;;;;;;5095652;28;20216;-61
2021/06/25 03:22:04;;;;;;;25.98;22.60;;;16.00;99.90;;;;;;5095651;28;20213;-63
2021/06/25 03:24:32;;;;;;;26.02;22.40;;;16.00;99.90;;;;;;5095792;28;20549;-62
2021/06/25 03:27:00;;;;;;;25.80;22.00;;;16.00;99.90;;;;;;5095623;28;20208;-62
2021/06/25 03:29:28;;;;;;;29.45;20.60;;;16.10;99.90;;;;;;5095101;28;20227;-62
2021/06/25 03:31:55;;;;;;;30.70;22.38;;;16.30;99.90;;;;;;5095601;28;20211;-62
2021/06/25 03:34:24;;;;;;;28.60;21.25;;;16.40;99.90;;;;;;5095342;28;20250;-62
2021/06/25 03:36:52;;;;;;;30.52;21.58;;;16.40;99.90;;;;;;5095253;28;20734;-61
2021/06/25 03:39:21;;;;;;;30.60;22.48;;;16.30;99.90;;;;;;5094307;28;20572;-61
2021/06/25 03:41:49;;;;;;;26.70;21.30;;;16.30;99.90;;;;;;5095125;28;20206;-61
2021/06/25 03:44:17;;;;;;;27.45;20.42;;;16.40;99.90;;;;;;5095075;28;20307;-61
2021/06/25 03:46:45;;;;;;;32.53;22.20;;;16.40;99.90;;;;;;5094734;28;20272;-60
2021/06/25 03:49:13;;;;;;;30.73;21.30;;;16.40;99.90;;;;;;5094649;28;20724;-61
2021/06/25 03:51:40;;;;;;;32.33;22.15;;;16.40;99.90;;;;;;5094617;28;20221;-60
2021/06/25 03:54:08;;;;;;;27.60;21.52;;;16.30;99.90;;;;;;5094895;28;20243;-61
2021/06/25 03:56:37;;;;;;;26.40;20.98;;;16.30;99.90;;;;;;5094918;28;20599;-62
2021/06/25 03:59:05;;;;;;;27.85;20.85;;;16.30;99.90;;;;;;5094735;28;20213;-61
2021/06/25 04:01:33;;;;;;;28.60;21.23;;;16.30;99.90;;;;;;5094877;28;20217;-62
2021/06/25 04:04:01;;;;;;;25.90;20.05;;;16.40;99.90;;;;;;5094815;28;20311;-61
2021/06/25 04:06:29;;;;;;;28.98;21.77;;;16.30;99.90;;;;;;5094665;28;20320;-62
2021/06/25 04:08:57;;;;;;;28.95;21.77;;;16.40;99.90;;;;;;5094446;28;20211;-62
2021/06/25 04:11:25;;;;;;;31.02;21.95;;;16.50;99.90;;;;;;5094679;28;20603;-62
2021/06/25 04:13:54;;;;;;;27.30;21.02;;;16.50;99.90;;;;;;5094895;28;20378;-61
2021/06/25 04:16:22;;;;;;;26.67;20.52;;;16.50;99.90;;;;;;5094407;28;20203;-61
2021/06/25 04:18:50;;;;;;;24.48;20.50;;;16.50;99.90;;;;;;5094656;28;20217;-61
2021/06/25 04:21:20;;;;;;;29.38;22.08;;;16.50;99.90;;;;;;5094107;28;20216;-61
2021/06/25 04:23:49;;;;;;;30.45;21.70;;;16.60;99.90;;;;;;5094128;28;20513;-61
2021/06/25 04:26:17;;;;;;;31.65;21.58;;;16.60;99.90;;;;;;5094232;28;20234;-61
2021/06/25 04:28:44;;;;;;;31.20;22.25;;;16.60;99.90;;;;;;5094007;28;20305;-62
2021/06/25 04:31:14;;;;;;;31.15;22.45;;;16.60;99.90;;;;;;5094215;28;20208;-62
2021/06/25 04:33:42;;;;;;;31.70;21.92;;;16.50;99.90;;;;;;5093835;28;20677;-61
2021/06/25 04:36:09;;;;;;;32.08;20.85;;;16.70;99.90;;;;;;5093638;28;20211;-61
2021/06/25 04:38:37;;;;;;;27.63;20.30;;;16.60;99.90;;;;;;5093788;28;20651;-61
2021/06/25 04:41:05;;;;;;;31.42;22.20;;;16.60;99.90;;;;;;5094019;28;20206;-61
2021/06/25 04:43:34;;;;;;;27.25;21.17;;;16.60;99.90;;;;;;5094001;28;20754;-62
2021/06/25 04:46:01;;;;;;;29.98;21.15;;;16.70;99.90;;;;;;5093985;28;20223;-61
2021/06/25 04:48:31;;;;;;;29.48;20.52;;;16.60;99.90;;;;;;5093620;28;20302;-61
2021/06/25 04:50:59;;;;;;;28.15;21.75;;;16.60;99.90;;;;;;5092424;28;20623;-61
2021/06/25 04:53:27;;;;;;;27.15;21.38;;;16.60;99.90;;;;;;5093306;28;20201;-61
2021/06/25 04:55:54;;;;;;;30.95;20.98;;;16.50;99.90;;;;;;5093289;28;20774;-61
2021/06/25 04:58:26;;;;;;;25.55;19.92;;;16.50;99.90;;;;;;5093231;28;20575;-62
2021/06/25 05:00:57;;;;;;;29.33;21.25;;;16.70;99.90;;;;;;5093127;28;20635;-60
2021/06/25 05:03:25;;;;;;;24.25;20.17;;;16.80;99.90;;;;;;5072765;28;20208;-61
2021/06/25 05:05:54;;;;;;;29.42;19.48;;;17.00;99.90;;;;;;5076980;28;20221;-61
2021/06/25 05:08:22;;;;;;;31.50;19.52;;;17.10;99.90;;;;;;5093500;28;20297;-61
2021/06/25 05:10:50;;;;;;;23.55;19.35;;;17.20;99.90;;;;;;5093445;28;20218;-61
2021/06/25 05:13:18;;;;;;;24.30;19.10;;;17.30;99.90;;;;;;5093541;28;20213;-62
2021/06/25 05:15:46;;;;;;;23.33;18.45;;;17.30;99.90;;;;;;5093276;28;20303;-61
2021/06/25 05:18:16;;;;;;;28.80;18.10;;;17.50;99.90;;;;;;5093182;28;20217;-62
2021/06/25 05:21:05;;;;;;;27.40;18.95;;;17.40;99.90;;;;;;5092970;28;20220;-61
2021/06/25 05:23:34;;;;;;;27.92;18.25;;;17.50;99.90;;;;;;5075605;28;20208;-61
2021/06/25 05:26:02;;;;;;;24.77;17.90;;;17.60;99.90;;;;;;5072348;28;20707;-61
2021/06/25 05:28:30;;;;;;;29.63;18.52;;;17.70;99.90;;;;;;5072836;28;20573;-61
2021/06/25 05:31:03;;;;;;;23.58;17.67;;;17.80;99.90;;;;;;5072782;28;20554;-61
2021/06/25 05:33:31;;;;;;;20.58;17.13;;;17.90;99.90;;;;;;5072592;28;20214;-62
2021/06/25 05:35:59;;;;;;;21.25;16.60;;;18.00;99.90;;;;;;5072901;28;20247;-61
2021/06/25 05:38:28;;;;;;;24.50;17.13;;;18.10;99.90;;;;;;5072835;28;20309;-61
2021/06/25 05:40:56;;;;;;;22.73;17.75;;;18.30;99.90;;;;;;5072811;28;20209;-61
2021/06/25 05:43:24;;;;;;;21.50;16.13;;;18.30;99.90;;;;;;5092228;28;20669;-61
2021/06/25 05:45:52;;;;;;;18.13;14.85;;;18.40;99.90;;;;;;5092782;28;20305;-61
2021/06/25 05:48:20;;;;;;;18.48;15.73;;;18.50;99.90;;;;;;5092694;28;20231;-61
2021/06/25 05:50:47;;;;;;;21.20;16.23;;;18.70;99.90;;;;;;5092379;28;20332;-61
2021/06/25 05:53:15;;;;;;;19.00;14.27;;;18.70;99.90;;;;;;5092841;28;20211;-60
2021/06/25 05:55:44;;;;;;;19.38;14.13;;;18.70;99.90;;;;;;5089397;28;20300;-60
2021/06/25 05:58:12;;;;;;;19.15;14.68;;;18.70;99.90;;;;;;5088168;28;20303;-60
2021/06/25 06:00:40;;;;;;;18.48;15.13;;;18.90;99.90;;;;;;5092335;28;20662;-60
2021/06/25 06:03:08;;;;;;;20.80;14.38;;;18.80;99.90;;;;;;5092509;28;20228;-60
2021/06/25 06:05:36;;;;;;;16.30;14.00;;;18.90;99.90;;;;;;5092696;28;20217;-60
2021/06/25 06:08:04;;;;;;;19.00;14.40;;;18.80;99.90;;;;;;5092393;28;20332;-60
2021/06/25 06:10:32;;;;;;;18.55;14.32;;;18.90;99.90;;;;;;5092104;28;20698;-60
2021/06/25 06:13:03;;;;;;;17.33;14.48;;;19.10;99.90;;;;;;5092647;28;20270;-61
2021/06/25 06:15:31;;;;;;;17.75;14.30;;;19.10;99.90;;;;;;5091984;28;20209;-61
2021/06/25 06:18:01;;;;;;;15.15;12.82;;;19.20;99.90;;;;;;5092480;28;20209;-60
2021/06/25 06:20:29;;;;;;;14.18;12.32;;;19.30;99.90;;;;;;5092776;28;20204;-61
2021/06/25 06:31:24;;;;;;;16.77;12.10;;;21.20;99.90;;;;;;5092486;28;20279;-60
2021/06/25 06:33:55;;;;;;;10.80;9.70;;;21.80;99.90;;;;;;5092431;28;20219;-60
2021/06/25 06:36:26;;;;;;;15.60;10.82;;;21.80;99.90;;;;;;5092527;28;20277;-60
2021/06/25 06:38:57;;;;;;;14.40;11.25;;;21.80;99.90;;;;;;5092197;28;20677;-60
2021/06/25 06:41:25;;;;;;;10.73;8.88;;;21.80;99.90;;;;;;5092117;28;20275;-61
2021/06/25 06:43:55;;;;;;;12.80;9.40;;;21.80;99.90;;;;;;5092435;28;20637;-60
2021/06/25 06:46:23;;;;;;;15.07;11.40;;;21.70;99.90;;;;;;5092126;28;20236;-60
2021/06/25 06:48:51;;;;;;;11.35;9.45;;;21.20;99.90;;;;;;5091991;28;20244;-60
2021/06/25 06:51:20;;;;;;;9.48;8.57;;;20.90;99.90;;;;;;5092414;28;20200;-60
2021/06/25 06:53:49;;;;;;;11.52;10.35;;;20.80;99.90;;;;;;5092377;28;20207;-61
2021/06/25 06:56:18;;;;;;;11.70;9.32;;;20.60;99.90;;;;;;5092243;28;20303;-60
2021/06/25 06:58:48;;;;;;;12.80;10.00;;;20.50;99.90;;;;;;5091896;28;20214;-60
2021/06/25 07:01:17;;;;;;;11.63;10.43;;;20.50;99.90;;;;;;5092183;28;20214;-61
2021/06/25 07:04:02;;;;;;;10.10;8.73;;;20.50;99.90;;;;;;5092147;28;20256;-59
2021/06/25 07:06:30;;;;;;;10.00;9.00;;;20.50;99.90;;;;;;5092461;28;20246;-60
2021/06/25 07:08:58;;;;;;;10.35;9.35;;;20.40;99.90;;;;;;5092236;28;20250;-61
2021/06/25 07:11:26;;;;;;;10.45;9.10;;;20.40;99.90;;;;;;5092346;28;20316;-61
2021/06/25 07:13:54;;;;;;;12.07;10.35;;;20.40;99.90;;;;;;5093024;28;20239;-60
2021/06/25 07:16:23;;;;;;;14.00;11.38;;;20.50;99.90;;;;;;5095459;28;20225;-60
2021/06/25 07:18:51;;;;;;;11.85;10.60;;;20.50;99.90;;;;;;5095324;28;20227;-61
2021/06/25 07:21:19;;;;;;;13.30;11.50;;;20.60;99.90;;;;;;5095241;28;20216;-61
2021/06/25 07:23:47;;;;;;;13.00;10.52;;;20.80;99.90;;;;;;5095535;28;20211;-61
2021/06/25 07:26:17;;;;;;;12.93;10.20;;;21.00;99.90;;;;;;5095321;28;20742;-60
2021/06/25 07:28:45;;;;;;;18.60;11.85;;;21.00;99.90;;;;;;5094909;28;20281;-61
2021/06/25 07:31:14;;;;;;;15.70;13.77;;;21.10;99.90;;;;;;5094958;28;20236;-60
2021/06/25 07:33:43;;;;;;;15.95;13.27;;;21.20;99.90;;;;;;5095109;28;20258;-61
2021/06/25 07:36:10;;;;;;;21.17;15.40;;;21.20;99.90;;;;;;5095411;28;20217;-60
2021/06/25 07:38:38;;;;;;;19.33;13.57;;;21.00;99.90;;;;;;5095369;28;20216;-60
2021/06/25 07:41:06;;;;;;;18.38;13.30;;;20.80;99.90;;;;;;5095298;28;20206;-61
2021/06/25 07:43:34;;;;;;;18.25;15.02;;;20.80;99.90;;;;;;5095141;28;20379;-59
2021/06/25 07:46:02;;;;;;;20.42;14.55;;;20.90;99.90;;;;;;5095056;28;20212;-59
2021/06/25 07:48:29;;;;;;;20.88;15.02;;;20.90;99.90;;;;;;5094884;28;20225;-63
2021/06/25 07:50:59;;;;;;;19.83;14.02;;;21.00;99.90;;;;;;5095021;28;20207;-61
2021/06/25 07:53:27;;;;;;;20.83;14.75;;;21.10;99.90;;;;;;5094061;28;20667;-62
2021/06/25 07:55:55;;;;;;;18.60;14.43;;;21.30;99.90;;;;;;5091936;28;20234;-59
2021/06/25 07:58:22;;;;;;;17.58;13.95;;;21.50;99.90;;;;;;5091045;28;20759;-60
2021/06/25 08:00:50;;;;;;;16.77;12.90;;;21.90;99.90;;;;;;5091562;28;20296;-60
2021/06/25 08:03:18;;;;;;;18.85;13.55;;;22.40;99.90;;;;;;5091345;28;20712;-60
2021/06/25 08:05:46;;;;;;;15.27;12.35;;;22.70;99.90;;;;;;5091270;28;20225;-59
2021/06/25 08:08:15;;;;;;;14.15;11.85;;;23.00;99.90;;;;;;5091515;28;20360;-63
2021/06/25 08:10:43;;;;;;;15.65;12.15;;;23.20;99.90;;;;;;5091097;28;20636;-63
2021/06/25 08:13:11;;;;;;;13.93;12.48;;;23.40;99.90;;;;;;5086662;28;20236;-62
2021/06/25 08:15:39;;;;;;;12.80;11.43;;;23.60;99.90;;;;;;5091406;28;20218;-61
2021/06/25 08:18:07;;;;;;;13.93;11.60;;;23.80;99.90;;;;;;5090950;28;20206;-61
2021/06/25 08:20:35;;;;;;;13.20;10.77;;;23.90;99.90;;;;;;5090221;28;20585;-61
2021/06/25 08:23:03;;;;;;;13.70;10.95;;;23.80;99.90;;;;;;5091563;28;20272;-60
2021/06/25 08:25:32;;;;;;;15.32;10.95;;;23.50;99.90;;;;;;5091049;28;20310;-62
2021/06/25 08:28:01;;;;;;;12.35;10.32;;;23.40;99.90;;;;;;5091140;28;20232;-61
2021/06/25 08:30:29;;;;;;;14.10;12.32;;;23.40;99.90;;;;;;5090996;28;20222;-61
2021/06/25 08:32:57;;;;;;;13.88;12.07;;;23.30;99.90;;;;;;5090897;28;20545;-60
2021/06/25 08:35:25;;;;;;;13.18;11.85;;;22.90;99.90;;;;;;5091135;28;20212;-62
2021/06/25 08:37:55;;;;;;;18.08;14.30;;;22.50;99.90;;;;;;5091248;28;20214;-61
2021/06/25 08:40:23;;;;;;;17.83;14.88;;;22.10;99.90;;;;;;5091021;28;20215;-60
2021/06/25 08:42:52;;;;;;;16.08;14.00;;;22.00;99.90;;;;;;5090999;28;20309;-61
2021/06/25 08:45:21;;;;;;;15.70;13.73;;;21.80;99.90;;;;;;5090305;28;20247;-64
2021/06/25 08:47:51;;;;;;;18.90;14.25;;;21.90;99.90;;;;;;5090212;28;20258;-63
2021/06/25 08:50:23;;;;;;;18.17;14.98;;;22.00;99.90;;;;;;5090436;28;20854;-63
2021/06/25 08:52:52;;;;;;;16.23;14.52;;;22.10;99.90;;;;;;5090663;28;20206;-60
2021/06/25 08:55:22;;;;;;;16.40;14.70;;;22.30;99.90;;;;;;5090560;28;20277;-59
2021/06/25 08:57:50;;;;;;;15.90;13.63;;;22.50;99.90;;;;;;5090623;28;20214;-61
2021/06/25 09:00:21;;;;;;;17.50;14.85;;;22.60;99.90;;;;;;5090194;28;20245;-61
2021/06/25 09:02:49;;;;;;;16.02;14.25;;;22.60;99.90;;;;;;5090162;28;20299;-60
2021/06/25 09:05:28;;;;;;;15.63;13.20;;;22.40;99.90;;;;;;5090569;28;20210;-61
2021/06/25 09:07:58;;;;;;;15.57;13.23;;;22.30;99.90;;;;;;5090247;28;20230;-63
2021/06/25 09:10:32;;;;;;;12.43;11.13;;;22.20;99.90;;;;;;5090047;28;20215;-60
2021/06/25 09:13:07;;;;;;;17.10;14.65;;;22.30;99.90;;;;;;5090598;28;20205;-59
2021/06/25 09:15:38;;;;;;;15.73;13.63;;;22.50;99.90;;;;;;5090367;28;20243;-60
2021/06/25 09:18:07;;;;;;;15.27;13.65;;;22.70;99.90;;;;;;5090030;28;20623;-60
2021/06/25 09:20:37;;;;;;;13.63;11.80;;;22.80;99.90;;;;;;5090308;28;20224;-62
2021/06/25 09:23:06;;;;;;;14.27;11.82;;;22.90;99.90;;;;;;5089739;28;20708;-60
2021/06/25 09:25:50;;;;;;;14.75;12.73;;;23.10;99.90;;;;;;5089967;28;20214;-61
2021/06/25 09:28:23;;;;;;;12.98;11.43;;;23.40;99.90;;;;;;5089679;28;20312;-61
2021/06/25 09:30:53;;;;;;;14.18;12.73;;;23.20;99.90;;;;;;5089726;28;20614;-62
2021/06/25 09:33:21;;;;;;;12.80;11.50;;;23.40;99.90;;;;;;5089063;28;20623;-60
2021/06/25 09:35:53;;;;;;;12.98;11.60;;;23.60;99.90;;;;;;5090147;28;20214;-60
2021/06/25 09:38:39;;;;;;;12.18;10.98;;;23.80;99.90;;;;;;5089892;28;20440;-61
2021/06/25 09:41:17;;;;;;;11.75;10.55;;;24.00;99.90;;;;;;5090140;28;20614;-62
2021/06/25 09:43:55;;;;;;;12.25;10.63;;;24.40;99.90;;;;;;5089694;28;20657;-60
2021/06/25 09:46:32;;;;;;;13.40;11.02;;;24.80;99.90;;;;;;5089777;28;20202;-62
2021/06/25 09:49:02;;;;;;;10.07;9.05;;;24.90;99.90;;;;;;5089561;28;20257;-60
2021/06/25 09:51:30;;;;;;;10.48;9.30;;;24.90;99.90;;;;;;5090022;28;20305;-60
2021/06/25 09:54:12;;;;;;;10.90;9.90;;;25.20;99.90;;;;;;5089469;28;20214;-60
2021/06/25 09:56:50;;;;;;;12.20;10.90;;;25.40;99.90;;;;;;5090043;28;20196;-61
2021/06/25 10:02:29;;;;;;;15.57;14.10;;;24.70;99.90;;;;;;5086854;28;20840;-61
2021/06/25 10:04:59;;;;;;;16.40;14.68;;;23.90;99.90;;;;;;5089924;28;20202;-62
2021/06/25 10:07:29;;;;;;;16.40;14.57;;;23.30;99.90;;;;;;5089687;28;20281;-61
2021/06/25 10:10:01;;;;;;;14.82;13.15;;;22.90;99.90;;;;;;5089501;28;20230;-60
2021/06/25 10:12:28;;;;;;;13.93;12.50;;;22.50;99.90;;;;;;5089732;28;20202;-63
2021/06/25 10:14:56;;;;;;;18.08;15.20;;;22.30;99.90;;;;;;5089387;28;20540;-62
2021/06/25 10:17:28;;;;;;;16.00;14.43;;;22.20;99.90;;;;;;5089538;28;20321;-63
2021/06/25 10:20:04;;;;;;;16.25;13.57;;;22.10;99.90;;;;;;5089725;28;20195;-61
2021/06/25 10:22:33;;;;;;;16.48;14.48;;;21.90;99.90;;;;;;5089735;28;20236;-61
2021/06/25 10:25:03;;;;;;;16.33;14.63;;;21.80;99.90;;;;;;5089688;28;20267;-61
2021/06/25 10:27:31;;;;;;;18.63;15.55;;;21.80;99.90;;;;;;5089554;28;20213;-62
2021/06/25 10:29:59;;;;;;;16.70;15.00;;;21.80;99.90;;;;;;5089147;28;20333;-62
2021/06/25 10:32:29;;;;;;;18.88;15.50;;;21.70;99.90;;;;;;5089217;28;20341;-62
2021/06/25 10:34:58;;;;;;;15.00;13.30;;;21.70;99.90;;;;;;5089196;28;20230;-63
2021/06/25 10:37:28;;;;;;;15.25;13.65;;;21.90;99.90;;;;;;5089042;28;20301;-61
2021/06/25 10:39:57;;;;;;;14.82;13.27;;;22.20;99.90;;;;;;5090575;28;20545;-61
2021/06/25 10:42:41;;;;;;;17.27;15.57;;;22.60;99.90;;;;;;5089816;28;20580;-62
2021/06/25 10:45:09;;;;;;;14.60;13.05;;;22.90;99.90;;;;;;5089186;28;20199;-62
2021/06/25 10:47:52;;;;;;;13.85;11.68;;;22.90;99.90;;;;;;5088904;28;20250;-63
2021/06/25 10:50:25;;;;;;;13.43;11.68;;;23.20;99.90;;;;;;5092197;28;20286;-62
2021/06/25 10:53:21;;;;;;;14.30;12.90;;;23.50;99.90;;;;;;5092957;28;20250;-62
2021/06/25 10:56:07;;;;;;;16.17;13.25;;;23.60;99.90;;;;;;5092671;28;20202;-63
2021/06/25 10:58:35;;;;;;;14.55;13.02;;;23.60;99.90;;;;;;5092971;28;20309;-67
2021/06/25 11:01:05;;;;;;;14.35;12.93;;;23.40;99.90;;;;;;5092721;28;20927;-68
2021/06/25 11:03:41;;;;;;;11.40;10.20;;;23.40;99.90;;;;;;5092813;28;20232;-69
2021/06/25 11:06:25;;;;;;;13.10;11.70;;;23.40;99.90;;;;;;5092510;28;20232;-67
2021/06/25 11:09:04;;;;;;;12.77;11.48;;;23.40;99.90;;;;;;5079864;28;20297;-67
2021/06/25 11:11:33;;;;;;;11.93;10.70;;;23.50;99.90;;;;;;5092684;28;20195;-67
2021/06/25 11:14:01;;;;;;;16.33;12.82;;;23.70;99.90;;;;;;5092745;28;20214;-61
2021/06/25 11:16:29;;;;;;;15.27;12.75;;;23.70;99.90;;;;;;5092171;28;20222;-64
2021/06/25 11:18:59;;;;;;;14.38;11.90;;;23.60;99.90;;;;;;5092086;28;20218;-63
2021/06/25 11:21:43;;;;;;;12.40;11.20;;;23.70;99.90;;;;;;5092342;28;20209;-63
2021/06/25 11:24:11;;;;;;;10.45;9.38;;;23.80;99.90;;;;;;5092321;28;20221;-63
2021/06/25 11:26:54;;;;;;;13.68;12.25;;;23.90;99.90;;;;;;5092392;28;20214;-65
2021/06/25 11:29:42;;;;;;;10.50;8.88;;;24.00;99.90;;;;;;5092187;28;20214;-62
2021/06/25 11:32:11;;;;;;;14.60;12.25;;;23.80;99.90;;;;;;5092106;28;20234;-62
2021/06/25 11:34:40;;;;;;;12.45;11.18;;;23.70;99.90;;;;;;5091881;28;20253;-62
2021/06/25 11:37:08;;;;;;;12.00;10.90;;;23.60;99.90;;;;;;5092148;28;20298;-63
2021/06/25 11:39:37;;;;;;;10.27;8.82;;;23.40;99.90;;;;;;5091702;28;20733;-62
2021/06/25 11:42:08;;;;;;;12.05;10.68;;;23.20;99.90;;;;;;5092053;28;20218;-61
2021/06/25 11:44:38;;;;;;;9.80;8.90;;;23.30;99.90;;;;;;5092096;28;20208;-61
2021/06/25 11:47:10;;;;;;;12.10;10.25;;;23.30;99.90;;;;;;5091815;28;20202;-61
2021/06/25 11:49:42;;;;;;;11.93;10.77;;;23.20;99.90;;;;;;5091717;28;20268;-59
2021/06/25 11:52:15;;;;;;;11.93;10.70;;;23.20;99.90;;;;;;5091662;28;20722;-62
2021/06/25 11:54:45;;;;;;;12.48;10.88;;;23.20;99.90;;;;;;5092197;28;20199;-64
2021/06/25 11:57:18;;;;;;;12.20;10.20;;;23.10;99.90;;;;;;5091944;28;20210;-64
2021/06/25 12:00:06;;;;;;;9.18;8.18;;;23.10;99.90;;;;;;5091034;28;20293;-61
2021/06/25 12:02:45;;;;;;;10.25;9.25;;;23.00;99.90;;;;;;5091769;28;20245;-62
2021/06/25 12:05:16;;;;;;;11.65;10.55;;;23.00;99.90;;;;;;5091355;28;20293;-62
2021/06/25 12:07:45;;;;;;;10.82;9.38;;;23.10;99.90;;;;;;5091133;28;20786;-61
2021/06/25 12:10:18;;;;;;;9.07;8.15;;;23.10;99.90;;;;;;5090947;28;20241;-63
2021/06/25 12:12:46;;;;;;;9.70;8.55;;;23.30;99.90;;;;;;5091328;28;20283;-61
2021/06/25 12:15:15;;;;;;;8.65;7.85;;;23.50;99.90;;;;;;5091361;28;20313;-62
2021/06/25 12:17:45;;;;;;;10.25;9.18;;;23.80;99.90;;;;;;5091046;28;20222;-62
2021/06/25 12:20:18;;;;;;;10.25;9.35;;;23.90;99.90;;;;;;5091638;28;20258;-62
2021/06/25 12:22:52;;;;;;;9.60;8.57;;;23.80;99.90;;;;;;5091410;28;20609;-62
2021/06/25 12:25:35;;;;;;;11.27;9.10;;;23.60;99.90;;;;;;5091409;28;20289;-62
2021/06/25 12:28:10;;;;;;;10.05;9.05;;;23.70;99.90;;;;;;5091152;28;20203;-62
2021/06/25 12:30:40;;;;;;;10.55;7.78;;;23.80;99.90;;;;;;5082663;28;20325;-60
2021/06/25 12:33:10;;;;;;;9.32;8.38;;;23.90;99.90;;;;;;5088621;28;20236;-59
2021/06/25 12:35:41;;;;;;;9.82;8.77;;;23.90;99.90;;;;;;5070869;28;20211;-61
2021/06/25 12:38:10;;;;;;;8.90;8.00;;;23.90;99.90;;;;;;5076785;28;20256;-62
2021/06/25 12:40:44;;;;;;;8.98;8.00;;;23.60;99.90;;;;;;5090930;28;20210;-61
2021/06/25 12:43:14;;;;;;;8.40;7.60;;;23.40;99.90;;;;;;5090596;28;20551;-62
2021/06/25 12:45:45;;;;;;;10.38;8.23;;;23.30;99.90;;;;;;5091035;28;20311;-62
2021/06/25 12:48:16;;;;;;;7.97;7.20;;;23.30;99.90;;;;;;5090403;28;20712;-60
2021/06/25 12:50:46;;;;;;;8.32;6.80;;;23.50;99.90;;;;;;5090322;28;20241;-62
2021/06/25 12:53:16;;;;;;;11.07;9.93;;;23.80;99.90;;;;;;5090600;28;20305;-62